EmailTwitter


Surface observations / Quebec / CYQB (71714)

Regions: Quebec | Canada | USA | Europe | France | UK | Elsewhere
Station
Display
Info & Location for CYQB (71714) | Help decoding METAR

Weather Conditions observed on 2018/10/17 at 01:00 UTC at QUEBEC A, QB (CYQB)

Sky conditions: partly cloudy.

Temperature: 3.0 Celsius.

Dewpoint: 0.0 Celsius.

Relative Humidity: 81%

Windchill Factor: 0.

Winds: Southwest at 9 km/h or 5 knots.

Mean Sea level Pressure: 101.13 kilopascals.

Altimeter Setting (QNH): 101.08 kilopascals or 29.85 inches of mercury.

Horizontal visibility: 15.00 statute miles or 24.00 kilometers.

Height of the Ceiling: 2408 metres ( 7900 feet ).

Coded METAR:

CYQB 170100Z 23005KT 15SM FEW050 FEW065 BKN079 03/M00 A2985 RMK SC1SC1AC5

SLP113=